Time;durP1;ratioP1;P1;durP2;ratioP2;P2;SDS_P1;SDS_P2;PMS_P1;PMS_P2;Temp;Humidity;BMP_temperature;BMP_pressure;BME280_temperature;BME280_humidity;BME280_pressure;Samples;Min_cycle;Max_cycle;Signal;HPM_P1;HPM_P2
2023/05/04 00:01:20;;;;;;;;;;;;;;;13.85;22.05;102286.88;5093966;28;19912;-66
2023/05/04 00:03:45;;;;;;;;;;;;;;;13.88;22.40;102299.22;5092823;28;19961;-65
2023/05/04 00:06:10;;;;;;;;;;;;;;;13.91;22.42;102296.16;5093499;28;19977;-67
2023/05/04 00:08:36;;;;;;;;;;;;;;;13.85;21.96;102305.78;5093869;28;19920;-67
2023/05/04 00:11:01;;;;;;;;;;;;;;;13.71;22.04;102299.22;5093383;28;19912;-67
2023/05/04 00:13:26;;;;;;;;;;;;;;;13.72;21.95;102303.63;5091675;28;19920;-66
2023/05/04 00:15:51;;;;;;;;;;;;;;;13.71;21.66;102304.63;5093539;28;19912;-66
2023/05/04 00:18:17;;;;;;;;;;;;;;;13.67;21.87;102300.59;5093142;28;19919;-66
2023/05/04 00:20:42;;;;;;;;;;;;;;;13.65;21.90;102310.72;5092187;28;20133;-66
2023/05/04 00:23:07;;;;;;;;;;;;;;;13.66;22.55;102308.84;5093182;28;20005;-66
2023/05/04 00:25:33;;;;;;;;;;;;;;;13.64;21.88;102318.97;5093465;28;20303;-65
2023/05/04 00:27:58;;;;;;;;;;;;;;;13.61;22.50;102312.03;5092037;28;20367;-66
2023/05/04 00:30:23;;;;;;;;;;;;;;;13.56;21.71;102314.41;5098133;28;20014;-65
2023/05/04 00:32:49;;;;;;;;;;;;;;;13.57;22.24;102313.38;5095567;28;19920;-66
2023/05/04 00:35:14;;;;;;;;;;;;;;;13.52;22.60;102322.00;5092973;28;19916;-66
2023/05/04 00:37:39;;;;;;;;;;;;;;;13.47;21.70;102321.66;5092450;28;19916;-66
2023/05/04 00:40:05;;;;;;;;;;;;;;;13.43;22.67;102325.72;5092953;28;19924;-66
2023/05/04 00:42:30;;;;;;;;;;;;;;;13.43;22.26;102332.94;5092779;28;19951;-66
2023/05/04 00:44:55;;;;;;;;;;;;;;;13.41;21.99;102325.03;5092587;28;19912;-65
2023/05/04 00:47:21;;;;;;;;;;;;;;;13.45;22.24;102330.94;5092385;28;19913;-66
2023/05/04 00:49:46;;;;;;;;;;;;;;;13.44;22.19;102335.47;5090880;28;19912;-67
2023/05/04 00:52:13;;;;;;;;;;;;;;;13.32;22.61;102336.81;5092157;28;20348;-66
2023/05/04 00:54:40;;;;;;;;;;;;;;;13.39;23.03;102343.25;5092089;28;19916;-67
2023/05/04 00:57:05;;;;;;;;;;;;;;;13.41;22.41;102337.66;5092016;28;20011;-67
2023/05/04 00:59:31;;;;;;;;;;;;;;;13.37;22.57;102345.25;5092071;28;20336;-67
2023/05/04 01:01:56;;;;;;;;;;;;;;;13.38;23.72;102346.94;5091913;28;20404;-66
2023/05/04 01:04:21;;;;;;;;;;;;;;;13.26;23.25;102349.09;5092579;28;19919;-67
2023/05/04 01:06:48;;;;;;;;;;;;;;;13.28;22.70;102351.59;5092502;28;19912;-67
2023/05/04 01:09:32;;;;;;;;;;;;;;;13.32;23.25;102351.16;5092494;28;19962;-66
2023/05/04 01:11:59;;;;;;;;;;;;;;;13.28;22.88;102357.00;5092158;28;19919;-67
2023/05/04 01:14:26;;;;;;;;;;;;;;;13.23;23.19;102356.66;5091035;28;19927;-67
2023/05/04 01:16:53;;;;;;;;;;;;;;;13.21;23.76;102356.00;5092340;28;19919;-66
2023/05/04 01:19:19;;;;;;;;;;;;;;;13.18;23.13;102359.84;5092345;28;19920;-66
2023/05/04 01:21:44;;;;;;;;;;;;;;;13.12;23.41;102355.94;5092285;28;19993;-67
2023/05/04 01:24:09;;;;;;;;;;;;;;;13.13;23.17;102364.88;5091980;28;19916;-68
2023/05/04 01:26:38;;;;;;;;;;;;;;;13.14;23.45;102364.72;5091263;28;19986;-67
2023/05/04 01:29:09;;;;;;;;;;;;;;;13.10;23.47;102370.63;5092434;28;19923;-67
2023/05/04 01:31:36;;;;;;;;;;;;;;;13.11;24.55;102375.00;5092145;28;20368;-68
2023/05/04 01:34:02;;;;;;;;;;;;;;;13.07;23.59;102371.78;5091958;28;19916;-67
2023/05/04 01:36:27;;;;;;;;;;;;;;;13.12;23.65;102376.69;5091860;28;20368;-66
2023/05/04 01:38:53;;;;;;;;;;;;;;;13.08;23.37;102378.03;5091067;28;19923;-67
2023/05/04 01:41:20;;;;;;;;;;;;;;;12.98;23.41;102384.41;5090489;28;20383;-66
2023/05/04 01:43:45;;;;;;;;;;;;;;;12.95;23.31;102373.09;5091452;28;19916;-66
2023/05/04 01:46:11;;;;;;;;;;;;;;;12.94;23.72;102374.94;5091385;28;19919;-67
2023/05/04 01:48:36;;;;;;;;;;;;;;;12.88;23.86;102378.28;5091575;28;19912;-66
2023/05/04 01:51:01;;;;;;;;;;;;;;;12.83;23.93;102383.31;5091400;28;19916;-67
2023/05/04 01:53:26;;;;;;;;;;;;;;;12.82;23.98;102389.72;5089800;28;19923;-66
2023/05/04 01:55:52;;;;;;;;;;;;;;;12.81;23.99;102384.47;5090691;28;20006;-66
2023/05/04 01:58:18;;;;;;;;;;;;;;;12.76;23.63;102391.22;5091135;28;19919;-65
2023/05/04 02:00:43;;;;;;;;;;;;;;;12.78;23.70;102396.44;5090256;28;19915;-66
2023/05/04 02:03:09;;;;;;;;;;;;;;;12.74;24.13;102392.34;5091608;28;20802;-65
2023/05/04 02:05:34;;;;;;;;;;;;;;;12.72;24.21;102394.38;5091534;28;19916;-66
2023/05/04 02:08:00;;;;;;;;;;;;;;;12.67;24.44;102396.72;5091156;28;20412;-66
2023/05/04 02:10:25;;;;;;;;;;;;;;;12.66;23.92;102405.81;5091728;28;19947;-66
2023/05/04 02:12:50;;;;;;;;;;;;;;;12.53;23.69;102403.53;5089937;28;19999;-66
2023/05/04 02:15:16;;;;;;;;;;;;;;;12.52;24.20;102410.78;5091472;28;19912;-66
2023/05/04 02:17:41;;;;;;;;;;;;;;;12.53;23.96;102404.38;5091147;28;20003;-65
2023/05/04 02:20:07;;;;;;;;;;;;;;;12.48;24.36;102406.72;5091278;28;19916;-66
2023/05/04 02:22:33;;;;;;;;;;;;;;;12.53;24.71;102412.44;5091166;28;19912;-67
2023/05/04 02:24:58;;;;;;;;;;;;;;;12.47;23.89;102412.25;5091188;28;19916;-66
2023/05/04 02:27:23;;;;;;;;;;;;;;;12.47;24.25;102414.94;5091549;28;19969;-66
2023/05/04 02:29:48;;;;;;;;;;;;;;;12.49;23.57;102421.88;5091080;28;20280;-65
2023/05/04 02:32:14;;;;;;;;;;;;;;;12.46;24.11;102416.81;5091657;28;20006;-66
2023/05/04 02:34:39;;;;;;;;;;;;;;;12.40;24.50;102429.03;5090053;28;19916;-65
2023/05/04 02:37:05;;;;;;;;;;;;;;;11.99;24.23;102357.84;5090568;28;20007;-66
2023/05/04 02:39:30;;;;;;;;;;;;;;;12.36;24.69;102424.97;5095244;28;20381;-66
2023/05/04 02:41:56;;;;;;;;;;;;;;;12.39;24.77;102421.13;5094958;28;19913;-66
2023/05/04 02:44:21;;;;;;;;;;;;;;;12.33;24.61;102433.38;5094460;28;19911;-65
2023/05/04 02:46:47;;;;;;;;;;;;;;;12.37;24.68;102429.38;5094613;28;20284;-67
2023/05/04 02:49:12;;;;;;;;;;;;;;;12.35;24.50;102438.59;5092807;28;19920;-66
2023/05/04 02:51:37;;;;;;;;;;;;;;;12.27;24.05;102425.91;5094856;28;19916;-64
2023/05/04 02:54:02;;;;;;;;;;;;;;;12.26;25.24;102440.41;5093602;28;19943;-66
2023/05/04 02:56:28;;;;;;;;;;;;;;;12.22;24.57;102438.16;5094507;28;19978;-67
2023/05/04 02:58:53;;;;;;;;;;;;;;;12.16;24.88;102437.78;5094387;28;19916;-65
2023/05/04 03:01:18;;;;;;;;;;;;;;;12.10;24.85;102435.72;5094438;28;20317;-65
2023/05/04 03:03:44;;;;;;;;;;;;;;;12.17;25.48;102442.16;5094894;28;19916;-67
2023/05/04 03:06:09;;;;;;;;;;;;;;;12.17;24.83;102442.16;5095254;28;19916;-65
2023/05/04 03:08:34;;;;;;;;;;;;;;;12.12;24.85;102443.63;5099524;28;20011;-67
2023/05/04 03:11:00;;;;;;;;;;;;;;;12.13;24.45;102448.03;5099490;28;19912;-66
2023/05/04 03:13:25;;;;;;;;;;;;;;;12.09;24.88;102446.63;5094465;28;19928;-66
2023/05/04 03:15:50;;;;;;;;;;;;;;;12.05;24.92;102442.56;5094522;28;20381;-65
2023/05/04 03:18:16;;;;;;;;;;;;;;;12.05;24.46;102448.78;5094862;28;19920;-66
2023/05/04 03:20:41;;;;;;;;;;;;;;;12.08;24.85;102445.78;5095213;28;19916;-66
2023/05/04 03:23:06;;;;;;;;;;;;;;;12.09;25.10;102443.94;5094753;28;20543;-66
2023/05/04 03:25:31;;;;;;;;;;;;;;;11.98;25.16;102447.75;5093767;28;19912;-66
2023/05/04 03:27:57;;;;;;;;;;;;;;;11.94;24.72;102444.50;5094717;28;19912;-66
2023/05/04 03:30:23;;;;;;;;;;;;;;;11.89;24.90;102443.25;5093379;28;19970;-66
2023/05/04 03:32:48;;;;;;;;;;;;;;;11.91;25.28;102443.97;5094380;28;19919;-67
2023/05/04 03:35:13;;;;;;;;;;;;;;;11.81;25.02;102455.63;5094213;28;19923;-67
2023/05/04 03:37:38;;;;;;;;;;;;;;;11.80;25.06;102453.06;5093804;28;19912;-67
2023/05/04 03:40:04;;;;;;;;;;;;;;;11.78;25.36;102455.91;5094315;28;19935;-66
2023/05/04 03:42:29;;;;;;;;;;;;;;;11.77;24.70;102451.50;5094362;28;19934;-66
2023/05/04 03:44:55;;;;;;;;;;;;;;;11.71;25.31;102452.13;5093709;28;20046;-65
2023/05/04 03:47:20;;;;;;;;;;;;;;;11.72;25.57;102453.84;5094033;28;20276;-66
2023/05/04 03:49:46;;;;;;;;;;;;;;;11.68;25.58;102465.03;5092811;28;19998;-66
2023/05/04 03:52:11;;;;;;;;;;;;;;;11.72;25.50;102461.91;5093740;28;19995;-66
2023/05/04 03:54:37;;;;;;;;;;;;;;;11.76;25.25;102457.91;5093928;28;20367;-66
2023/05/04 03:57:03;;;;;;;;;;;;;;;11.69;25.18;102466.75;5094233;28;19912;-66
2023/05/04 03:59:28;;;;;;;;;;;;;;;11.65;25.05;102462.69;5093771;28;19912;-66
2023/05/04 04:01:54;;;;;;;;;;;;;;;11.58;25.57;102462.41;5093584;28;20230;-65
2023/05/04 04:04:19;;;;;;;;;;;;;;;11.59;25.47;102467.66;5093570;28;19916;-67
2023/05/04 04:06:45;;;;;;;;;;;;;;;11.56;25.67;102465.25;5093725;28;20039;-66
2023/05/04 04:09:10;;;;;;;;;;;;;;;11.55;26.00;102466.28;5093128;28;19916;-66
2023/05/04 04:11:36;;;;;;;;;;;;;;;11.58;25.81;102467.81;5093173;28;20395;-66
2023/05/04 04:14:01;;;;;;;;;;;;;;;11.59;25.89;102464.13;5092738;28;20007;-66
2023/05/04 04:16:26;;;;;;;;;;;;;;;11.57;25.84;102468.78;5091489;28;19973;-66
2023/05/04 04:18:52;;;;;;;;;;;;;;;11.55;25.55;102468.09;5093219;28;20317;-66
2023/05/04 04:21:17;;;;;;;;;;;;;;;11.50;25.70;102468.56;5093199;28;19919;-66
2023/05/04 04:23:42;;;;;;;;;;;;;;;11.47;25.83;102470.69;5092003;28;20245;-66
2023/05/04 04:26:08;;;;;;;;;;;;;;;11.49;25.50;102477.63;5093815;28;20375;-66
2023/05/04 04:28:33;;;;;;;;;;;;;;;11.40;25.80;102467.75;5092192;28;19959;-66
2023/05/04 04:30:58;;;;;;;;;;;;;;;11.47;26.15;102476.91;5093601;28;19916;-66
2023/05/04 04:33:24;;;;;;;;;;;;;;;11.53;25.67;102483.53;5093265;28;19916;-66
2023/05/04 04:35:49;;;;;;;;;;;;;;;11.54;25.60;102483.41;5093368;28;19916;-66
2023/05/04 04:38:14;;;;;;;;;;;;;;;11.56;25.80;102483.25;5091045;28;19916;-65
2023/05/04 04:40:40;;;;;;;;;;;;;;;11.62;25.30;102483.47;5092557;28;20276;-66
2023/05/04 04:43:05;;;;;;;;;;;;;;;11.61;25.41;102483.66;5093350;28;20451;-66
2023/05/04 04:45:30;;;;;;;;;;;;;;;11.72;25.78;102494.22;5090579;28;20360;-66
2023/05/04 04:47:56;;;;;;;;;;;;;;;11.73;25.86;102490.50;5092745;28;19919;-67
2023/05/04 04:50:21;;;;;;;;;;;;;;;11.80;25.46;102496.16;5092610;28;19935;-67
2023/05/04 04:52:47;;;;;;;;;;;;;;;11.69;25.45;102494.50;5092398;28;19916;-67
2023/05/04 04:55:14;;;;;;;;;;;;;;;11.66;26.00;102500.19;5092811;28;19973;-66
2023/05/04 04:57:39;;;;;;;;;;;;;;;11.65;25.74;102503.88;5092593;28;19962;-66
2023/05/04 05:00:13;;;;;;;;;;;;;;;11.70;26.06;102501.59;5091678;28;20311;-66
2023/05/04 05:02:38;;;;;;;;;;;;;;;11.74;25.78;102505.66;5091412;28;19916;-66
2023/05/04 05:05:03;;;;;;;;;;;;;;;11.76;25.38;102509.06;5092722;28;20303;-66
2023/05/04 05:07:29;;;;;;;;;;;;;;;11.74;25.21;102502.13;5092456;28;20075;-66
2023/05/04 05:09:54;;;;;;;;;;;;;;;11.81;25.83;102508.59;5092863;28;19916;-66
2023/05/04 05:12:20;;;;;;;;;;;;;;;11.84;25.87;102507.47;5091963;28;19963;-65
2023/05/04 05:14:46;;;;;;;;;;;;;;;11.86;25.23;102509.00;5092759;28;19966;-65
2023/05/04 05:17:11;;;;;;;;;;;;;;;11.91;25.17;102519.34;5092497;28;19912;-66
2023/05/04 05:19:36;;;;;;;;;;;;;;;11.85;25.96;102511.81;5092845;28;19977;-66
2023/05/04 05:22:02;;;;;;;;;;;;;;;12.10;25.09;102513.81;5092293;28;19912;-66
2023/05/04 05:24:27;;;;;;;;;;;;;;;12.27;25.12;102514.81;5092552;28;19912;-66
2023/05/04 05:26:53;;;;;;;;;;;;;;;12.39;25.77;102515.44;5092611;28;19995;-66
2023/05/04 05:29:18;;;;;;;;;;;;;;;12.48;25.49;102511.81;5092642;28;19916;-67
2023/05/04 05:31:43;;;;;;;;;;;;;;;12.60;24.82;102515.09;5092404;28;19962;-67
2023/05/04 05:34:09;;;;;;;;;;;;;;;12.62;24.83;102509.56;5092477;28;19927;-67
2023/05/04 05:36:34;;;;;;;;;;;;;;;12.63;24.50;102520.19;5091848;28;19959;-66
2023/05/04 05:38:59;;;;;;;;;;;;;;;12.74;24.79;102516.38;5092257;28;19915;-66
2023/05/04 05:41:24;;;;;;;;;;;;;;;12.75;24.75;102516.22;5093779;28;19916;-65
2023/05/04 05:43:50;;;;;;;;;;;;;;;12.84;24.77;102510.91;5092722;28;19919;-66
2023/05/04 05:46:17;;;;;;;;;;;;;;;12.78;25.32;102510.53;5091201;28;20292;-67
2023/05/04 05:48:42;;;;;;;;;;;;;;;12.79;24.50;102509.50;5091290;28;19919;-65
2023/05/04 05:51:07;;;;;;;;;;;;;;;12.98;24.60;102515.69;5089839;28;19998;-65
2023/05/04 05:53:33;;;;;;;;;;;;;;;13.22;24.55;102523.09;5089811;28;20373;-64
2023/05/04 05:55:58;;;;;;;;;;;;;;;13.31;23.87;102518.63;5091464;28;19947;-65
2023/05/04 05:58:23;;;;;;;;;;;;;;;13.27;24.20;102495.63;5091921;28;19919;-66
2023/05/04 06:00:49;;;;;;;;;;;;;;;13.30;23.76;102522.31;5092060;28;19991;-67
2023/05/04 06:03:14;;;;;;;;;;;;;;;13.34;23.30;102519.16;5091416;28;19924;-66
2023/05/04 06:05:40;;;;;;;;;;;;;;;13.33;23.83;102522.88;5092083;28;19916;-66
2023/05/04 06:08:05;;;;;;;;;;;;;;;13.39;23.76;102523.19;5091004;28;20368;-66
2023/05/04 06:10:30;;;;;;;;;;;;;;;13.42;24.12;102526.44;5090212;28;19912;-66
2023/05/04 06:12:56;;;;;;;;;;;;;;;13.50;23.48;102525.63;5091128;28;20364;-65
2023/05/04 06:15:21;;;;;;;;;;;;;;;13.50;23.28;102525.63;5090317;28;19916;-64
2023/05/04 06:17:48;;;;;;;;;;;;;;;13.55;23.78;102528.69;5091370;28;19919;-65
2023/05/04 06:20:14;;;;;;;;;;;;;;;13.49;23.77;102530.16;5091624;28;20721;-65
2023/05/04 06:22:39;;;;;;;;;;;;;;;13.44;23.45;102521.72;5091552;28;19913;-67
2023/05/04 06:25:05;;;;;;;;;;;;;;;13.40;23.31;102530.31;5091194;28;19971;-65
2023/05/04 06:27:31;;;;;;;;;;;;;;;13.34;23.35;102535.34;5090814;28;20290;-66
2023/05/04 06:29:57;;;;;;;;;;;;;;;13.35;23.51;102530.78;5091330;28;19931;-65
2023/05/04 06:32:22;;;;;;;;;;;;;;;12.92;23.00;102471.31;5090436;28;19912;-65
2023/05/04 06:34:51;;;;;;;;;;;;;;;13.38;23.47;102535.03;5091052;28;19969;-64
2023/05/04 06:37:17;;;;;;;;;;;;;;;13.29;23.32;102534.94;5088357;28;20011;-64
2023/05/04 06:39:42;;;;;;;;;;;;;;;13.35;22.80;102537.03;5090226;28;19916;-64
2023/05/04 06:42:08;;;;;;;;;;;;;;;13.42;22.95;102534.53;5091309;28;19991;-66
2023/05/04 06:44:35;;;;;;;;;;;;;;;13.54;22.97;102535.09;5091173;28;19916;-65
2023/05/04 06:47:00;;;;;;;;;;;;;;;13.62;24.21;102539.69;5090355;28;20503;-65
2023/05/04 06:49:29;;;;;;;;;;;;;;;13.69;22.56;102538.03;5091029;28;19919;-64
2023/05/04 06:51:55;;;;;;;;;;;;;;;13.72;23.01;102532.28;5089896;28;19919;-64
2023/05/04 06:54:20;;;;;;;;;;;;;;;13.75;22.62;102529.25;5090280;28;20264;-66
2023/05/04 06:56:45;;;;;;;;;;;;;;;13.85;22.23;102529.13;5090958;28;19916;-65
2023/05/04 06:59:11;;;;;;;;;;;;;;;13.93;22.17;102523.75;5089709;28;20007;-65
2023/05/04 07:01:36;;;;;;;;;;;;;;;14.04;21.74;102517.16;5089755;28;19950;-65
2023/05/04 07:04:01;;;;;;;;;;;;;;;14.07;21.76;102530.34;5089663;28;20295;-65
2023/05/04 07:06:28;;;;;;;;;;;;;;;14.06;22.16;102526.81;5089628;28;19943;-66
2023/05/04 07:08:53;;;;;;;;;;;;;;;14.21;21.81;102528.84;5090146;28;19913;-66
2023/05/04 07:11:18;;;;;;;;;;;;;;;14.38;22.13;102532.44;5089866;28;20381;-65
2023/05/04 07:13:44;;;;;;;;;;;;;;;14.50;21.55;102525.66;5090649;28;19920;-66
2023/05/04 07:16:09;;;;;;;;;;;;;;;14.56;21.06;102526.84;5090851;28;19916;-66
2023/05/04 07:18:34;;;;;;;;;;;;;;;14.62;21.10;102523.50;5090237;28;19943;-66
2023/05/04 07:21:00;;;;;;;;;;;;;;;14.53;21.23;102519.94;5089787;28;19970;-66
2023/05/04 07:23:25;;;;;;;;;;;;;;;14.55;20.80;102523.31;5091402;28;20318;-67
2023/05/04 07:25:51;;;;;;;;;;;;;;;14.65;21.32;102520.44;5093047;28;19912;-66
2023/05/04 07:28:16;;;;;;;;;;;;;;;14.60;21.35;102522.81;5094221;28;19916;-66
2023/05/04 07:30:41;;;;;;;;;;;;;;;14.52;21.43;102524.50;5094432;28;20518;-65
2023/05/04 07:33:06;;;;;;;;;;;;;;;14.69;21.58;102522.66;5094555;28;19916;-66
2023/05/04 07:35:32;;;;;;;;;;;;;;;14.73;21.24;102525.88;5093855;28;19964;-65
2023/05/04 07:37:57;;;;;;;;;;;;;;;14.78;21.12;102523.47;5092305;28;20471;-67
2023/05/04 07:40:22;;;;;;;;;;;;;;;14.76;21.11;102525.50;5094387;28;19912;-66
2023/05/04 07:42:48;;;;;;;;;;;;;;;14.55;20.96;102526.00;5094690;28;19919;-66
2023/05/04 07:45:15;;;;;;;;;;;;;;;14.39;20.79;102518.72;5094081;28;19916;-66
2023/05/04 07:47:41;;;;;;;;;;;;;;;14.51;20.88;102522.78;5093400;28;19923;-66
2023/05/04 07:50:06;;;;;;;;;;;;;;;14.35;20.98;102519.25;5094343;28;19990;-65
2023/05/04 07:52:32;;;;;;;;;;;;;;;14.30;21.33;102520.59;5093938;28;19912;-66
2023/05/04 07:54:57;;;;;;;;;;;;;;;14.40;21.25;102517.72;5093882;28;19923;-65
2023/05/04 07:57:22;;;;;;;;;;;;;;;14.34;21.71;102515.72;5093770;28;20008;-65
2023/05/04 07:59:52;;;;;;;;;;;;;;;14.40;21.25;102517.72;5093773;28;20281;-66
2023/05/04 08:02:17;;;;;;;;;;;;;;;14.22;20.77;102517.88;5093447;28;19934;-66
2023/05/04 08:04:42;;;;;;;;;;;;;;;14.26;20.61;102516.56;5093004;28;20368;-66
2023/05/04 08:07:07;;;;;;;;;;;;;;;14.35;21.19;102505.72;5096086;28;19967;-66
2023/05/04 08:09:33;;;;;;;;;;;;;;;14.38;20.90;102514.34;5093130;28;19922;-65
2023/05/04 08:11:58;;;;;;;;;;;;;;;14.27;21.16;102515.53;5093611;28;19919;-66
2023/05/04 08:14:25;;;;;;;;;;;;;;;14.31;21.03;102507.91;5092498;28;20401;-66
2023/05/04 08:16:50;;;;;;;;;;;;;;;14.37;21.46;102518.06;5093541;28;20332;-66
2023/05/04 08:19:17;;;;;;;;;;;;;;;14.30;20.97;102511.63;5093424;28;19912;-65
2023/05/04 08:21:43;;;;;;;;;;;;;;;14.43;21.09;102508.41;5093172;28;19916;-66
2023/05/04 08:24:08;;;;;;;;;;;;;;;14.42;21.71;102509.47;5093247;28;19912;-66
2023/05/04 08:26:36;;;;;;;;;;;;;;;14.53;21.61;102518.06;5093347;28;19965;-66
2023/05/04 08:29:09;;;;;;;;;;;;;;;14.62;20.67;102515.41;5092808;28;20315;-66
2023/05/04 08:31:34;;;;;;;;;;;;;;;14.71;21.16;102515.22;5091346;28;19920;-66
2023/05/04 08:34:00;;;;;;;;;;;;;;;14.78;21.09;102515.34;5092899;28;20327;-66
2023/05/04 08:36:26;;;;;;;;;;;;;;;14.86;20.59;102514.53;5092369;28;19923;-65
2023/05/04 08:38:52;;;;;;;;;;;;;;;14.90;20.61;102526.69;5092228;28;19966;-66
2023/05/04 08:41:17;;;;;;;;;;;;;;;14.93;20.95;102515.50;5092848;28;20590;-65
2023/05/04 08:43:44;;;;;;;;;;;;;;;14.96;20.71;102514.34;5092751;28;19916;-66
2023/05/04 08:46:09;;;;;;;;;;;;;;;15.00;20.89;102508.41;5092372;28;20019;-65
2023/05/04 08:48:35;;;;;;;;;;;;;;;15.07;20.58;102514.81;5092440;28;20019;-67
2023/05/04 08:51:01;;;;;;;;;;;;;;;15.09;20.43;102511.94;5092303;28;19939;-66
2023/05/04 08:53:27;;;;;;;;;;;;;;;15.18;20.66;102513.59;5092590;28;19916;-67
2023/05/04 08:55:54;;;;;;;;;;;;;;;15.26;20.07;102510.84;5092483;28;20430;-67
2023/05/04 08:58:21;;;;;;;;;;;;;;;15.41;20.21;102512.84;5092695;28;19919;-66
2023/05/04 09:00:46;;;;;;;;;;;;;;;15.40;20.41;102506.59;5092062;28;20284;-66
2023/05/04 09:03:12;;;;;;;;;;;;;;;15.51;20.68;102502.66;5092713;28;19919;-66
2023/05/04 09:05:37;;;;;;;;;;;;;;;15.48;20.27;102492.16;5092807;28;19912;-67
2023/05/04 09:08:03;;;;;;;;;;;;;;;15.58;20.08;102497.34;5092680;28;19912;-66
2023/05/04 09:10:29;;;;;;;;;;;;;;;15.70;20.69;102493.25;5092650;28;19958;-66
2023/05/04 09:12:55;;;;;;;;;;;;;;;15.78;19.66;102495.09;5090924;28;19927;-65
2023/05/04 09:15:20;;;;;;;;;;;;;;;15.70;19.47;102498.66;5092021;28;19924;-65
2023/05/04 09:17:55;;;;;;;;;;;;;;;15.84;20.40;102497.06;5091841;28;19913;-67
2023/05/04 09:20:20;;;;;;;;;;;;;;;15.88;19.44;102495.72;5090962;28;19916;-66
2023/05/04 09:22:45;;;;;;;;;;;;;;;16.04;20.21;102492.88;5092946;28;20284;-66
2023/05/04 09:25:12;;;;;;;;;;;;;;;16.17;19.19;102489.56;5092491;28;19912;-66
2023/05/04 09:27:39;;;;;;;;;;;;;;;16.21;19.51;102495.47;5091356;28;19912;-66
2023/05/04 09:30:04;;;;;;;;;;;;;;;16.40;19.86;102486.00;5092300;28;19916;-66
2023/05/04 09:32:30;;;;;;;;;;;;;;;16.43;18.74;102483.75;5091224;28;20002;-66
2023/05/04 09:34:56;;;;;;;;;;;;;;;16.30;19.36;102475.41;5091441;28;20278;-66
2023/05/04 09:37:21;;;;;;;;;;;;;;;16.29;19.07;102476.44;5091012;28;19916;-66
2023/05/04 09:39:52;;;;;;;;;;;;;;;16.32;18.40;102483.38;5091542;28;19912;-66
2023/05/04 09:42:19;;;;;;;;;;;;;;;16.31;19.41;102478.97;5091426;28;19916;-66
2023/05/04 09:44:45;;;;;;;;;;;;;;;16.43;19.69;102486.47;5091224;28;19916;-66
2023/05/04 09:47:10;;;;;;;;;;;;;;;16.76;19.00;102488.06;5091082;28;20422;-66
2023/05/04 09:49:36;;;;;;;;;;;;;;;16.91;17.59;102493.53;5090624;28;19956;-66
2023/05/04 09:52:02;;;;;;;;;;;;;;;17.06;18.06;102488.13;5091512;28;19920;-66
2023/05/04 09:54:30;;;;;;;;;;;;;;;17.37;17.77;102488.75;5089778;28;20393;-66
2023/05/04 09:56:59;;;;;;;;;;;;;;;17.49;17.29;102486.38;5090753;28;19920;-66
2023/05/04 09:59:28;;;;;;;;;;;;;;;17.64;17.77;102494.50;5091302;28;19951;-65
2023/05/04 10:01:53;;;;;;;;;;;;;;;17.67;17.00;102487.84;5091724;28;19970;-66
2023/05/04 10:04:19;;;;;;;;;;;;;;;17.86;17.32;102489.16;5091010;28;19955;-66
2023/05/04 10:06:44;;;;;;;;;;;;;;;17.87;16.85;102488.13;5090398;28;19916;-66
2023/05/04 10:09:10;;;;;;;;;;;;;;;18.23;17.33;102481.78;5092086;28;20516;-65
2023/05/04 10:11:36;;;;;;;;;;;;;;;18.41;16.90;102475.88;5091150;28;20275;-66
2023/05/04 10:14:01;;;;;;;;;;;;;;;18.65;17.21;102478.16;5091391;28;19920;-66
2023/05/04 10:16:33;;;;;;;;;;;;;;;18.85;16.02;102472.88;5091715;28;20368;-65
2023/05/04 10:19:05;;;;;;;;;;;;;;;18.97;16.20;102470.44;5091173;28;19918;-66
2023/05/04 10:21:33;;;;;;;;;;;;;;;19.43;17.40;102460.81;5091701;28;19916;-66
2023/05/04 10:24:24;;;;;;;;;;;;;;;19.39;16.57;102460.38;5091489;28;20002;-66
2023/05/04 10:26:58;;;;;;;;;;;;;;;19.44;16.36;102463.31;5072357;28;19919;-66
2023/05/04 10:29:24;;;;;;;;;;;;;;;19.86;15.76;102450.47;5092698;28;19912;-66
2023/05/04 10:31:51;;;;;;;;;;;;;;;20.38;15.65;102455.34;5092525;28;19919;-67
2023/05/04 10:34:23;;;;;;;;;;;;;;;20.81;15.11;102454.91;5090729;28;19916;-67
2023/05/04 10:36:49;;;;;;;;;;;;;;;21.43;16.25;102450.72;5090214;28;20006;-68
2023/05/04 10:39:18;;;;;;;;;;;;;;;22.02;14.92;102453.31;5091296;28;20007;-67
2023/05/04 10:41:55;;;;;;;;;;;;;;;22.01;14.18;102451.66;5091098;28;19918;-67
2023/05/04 10:44:20;;;;;;;;;;;;;;;22.04;14.18;102430.13;5090974;28;20411;-67
2023/05/04 10:46:54;;;;;;;;;;;;;;;22.20;14.84;102445.19;5090761;28;19955;-67
2023/05/04 10:49:20;;;;;;;;;;;;;;;22.18;15.25;102450.03;5090940;28;19934;-67
2023/05/04 10:51:45;;;;;;;;;;;;;;;22.27;14.80;102447.91;5090816;28;20380;-67
2023/05/04 10:54:20;;;;;;;;;;;;;;;22.11;16.03;102441.03;5089388;28;20023;-67
2023/05/04 10:56:45;;;;;;;;;;;;;;;22.00;14.59;102449.97;5090956;28;19966;-67
2023/05/04 10:59:11;;;;;;;;;;;;;;;21.73;14.23;102449.31;5093111;28;20024;-67
2023/05/04 11:01:46;;;;;;;;;;;;;;;21.78;14.46;102441.28;5094676;28;19912;-67
2023/05/04 11:04:21;;;;;;;;;;;;;;;21.66;14.68;102449.34;5094514;28;19912;-66
2023/05/04 11:06:59;;;;;;;;;;;;;;;21.49;14.47;102443.56;5094419;28;19915;-67
2023/05/04 11:09:25;;;;;;;;;;;;;;;21.76;15.64;102438.75;5094391;28;20272;-67
2023/05/04 11:11:52;;;;;;;;;;;;;;;22.12;14.85;102430.94;5094000;28;20371;-66
2023/05/04 11:14:24;;;;;;;;;;;;;;;22.77;14.20;102419.59;5094540;28;19920;-67
2023/05/04 11:16:50;;;;;;;;;;;;;;;23.43;13.48;102414.41;5094813;28;19912;-66
2023/05/04 11:19:16;;;;;;;;;;;;;;;23.98;13.96;102417.00;5093188;28;19916;-67
2023/05/04 11:21:41;;;;;;;;;;;;;;;24.10;13.12;102417.81;5094344;28;19912;-67
2023/05/04 11:24:07;;;;;;;;;;;;;;;23.75;12.66;102413.09;5093986;28;19919;-67
2023/05/04 11:26:43;;;;;;;;;;;;;;;23.63;12.84;102408.66;5094060;28;19918;-67
2023/05/04 11:29:15;;;;;;;;;;;;;;;23.46;12.98;102401.06;5094285;28;19912;-67
2023/05/04 11:31:40;;;;;;;;;;;;;;;23.32;13.38;102405.88;5094212;28;19912;-67
2023/05/04 11:34:06;;;;;;;;;;;;;;;22.96;13.44;102409.50;5094300;28;19920;-67
2023/05/04 11:36:36;;;;;;;;;;;;;;;23.19;13.83;102419.78;5093518;28;19916;-68
2023/05/04 11:39:04;;;;;;;;;;;;;;;23.37;13.00;102422.50;5093517;28;20352;-67
2023/05/04 11:41:30;;;;;;;;;;;;;;;23.44;13.52;102419.66;5094056;28;19962;-69
2023/05/04 11:43:55;;;;;;;;;;;;;;;24.06;14.97;102413.88;5091985;28;19955;-67
2023/05/04 11:46:21;;;;;;;;;;;;;;;24.70;13.79;102408.56;5093794;28;19952;-68
2023/05/04 11:48:46;;;;;;;;;;;;;;;24.87;11.88;102410.53;5094049;28;20359;-68
2023/05/04 11:51:12;;;;;;;;;;;;;;;25.21;12.56;102405.19;5093929;28;20602;-68
2023/05/04 11:53:38;;;;;;;;;;;;;;;25.60;13.89;102395.22;5093892;28;19917;-68
2023/05/04 11:56:03;;;;;;;;;;;;;;;25.97;12.05;102396.72;5094277;28;20334;-68
2023/05/04 11:58:29;;;;;;;;;;;;;;;26.34;13.25;102394.28;5075473;28;19912;-68
2023/05/04 12:00:55;;;;;;;;;;;;;;;27.07;12.24;102398.84;5094181;28;19916;-68
2023/05/04 12:03:25;;;;;;;;;;;;;;;27.53;11.82;102391.91;5092752;28;19927;-68
2023/05/04 12:05:51;;;;;;;;;;;;;;;27.47;11.38;102395.72;5093120;28;19966;-68
2023/05/04 12:08:25;;;;;;;;;;;;;;;27.16;11.42;102389.84;5093696;28;19959;-68
2023/05/04 12:10:51;;;;;;;;;;;;;;;26.72;10.38;102389.84;5093702;28;19961;-68
2023/05/04 12:13:16;;;;;;;;;;;;;;;26.68;11.29;102396.16;5093036;28;19927;-68
2023/05/04 12:15:42;;;;;;;;;;;;;;;26.67;12.68;102400.84;5093501;28;19912;-68
2023/05/04 12:18:07;;;;;;;;;;;;;;;26.38;11.86;102392.66;5093645;28;19919;-68
2023/05/04 12:20:33;;;;;;;;;;;;;;;26.27;11.86;102399.13;5093460;28;20316;-68
2023/05/04 12:23:04;;;;;;;;;;;;;;;26.02;11.95;102394.88;5093296;28;19912;-68
2023/05/04 12:25:30;;;;;;;;;;;;;;;25.55;11.48;102400.63;5093332;28;19927;-68
2023/05/04 12:27:56;;;;;;;;;;;;;;;25.20;11.58;102400.75;5093372;28;20311;-68
2023/05/04 12:30:21;;;;;;;;;;;;;;;25.37;12.89;102396.19;5092745;28;19991;-68